Terminal Aerodrome Forecast
Issued by NWS

Home | Current Version | Previous Version | Text Only | Print | Product List | Glossary On
Versions: 1 2 3 4 5 6 7 8 9 10 11 12 13
000
FTUS43 KDDC 211123
TAFGCK
TAF
KGCK 211123Z 2112/2212 19012G20KT P6SM VCSH BKN070
      TEMPO 2114/2118 -RA
     FM211900 19013G20KT P6SM VCTS BKN070CB
     FM220000 17010KT P6SM BKN080
     FM221100 36010KT P6SM SCT100=

USA.gov is the U.S. government's official web portal to all federal, state and local government web resources and services.